Edward G. Pitka Sr Airport Galena US
ICAO: PAGA
IATA:
Category: Medium
Scheduled Services:

Elevation: 153 ft
TransAlt. 18000 ft.

Airport Communications:
AWOS 3:132.525
ANCHORAGE CNTR:127
CTAF:123
FAIRBANKS RDO:122.2
GALENA OPS:39.12
PMSV METRO:134.5

PAGA Zoom In..

If you have problems with the map follow the link
https://www.worldairports.se/pages/airport.php?
ICAO=PAGA

Runways:

(A) RW 06 length 2786 ft width 80 ft
---- / hdg 73

(B) RW 07 length 7249 ft width 150 ft
---- / hdg 72

(C) RW 24 length 2786 ft width 80 ft
---- / hdg 253

(D) RW 25 length 7249 ft width 150 ft
ILS 109.50 / hdg 252

Location; PAGA
Day. 24 / Time. 10.56 Zulu
* Altimeter: 29.91
* Temperature: 02° c. 35.6°f.
* Wind from: 130° Speed 10 kn.
Dewpoint: -05° c.
Visibility: 10 Statute Miles.
Clouds: Clear (automated report).

PAGA 241056Z 13010KT 10SM CLR 02/M05 A2991 RMK AO2 SLP130 T00171050 FZRANO


Wind From 130°
Speed 10 kn.

 
 
jpsmedia.com for Web Design worldairports.se 2019   terms of use